CheckWX is a tool to help pilots better visualize weather data.  It is not intended as a substitute for an official pre-flight weather briefing.

18:36:02 UTC

KIFP METAR
Laughlin / Bullhead International Airport
Bullhead City, Arizona, USA
Current

47 mins ago

KIFP 261749Z 00000KT 20SM SCT140 21/01 A3001
Observed
Mar-26 @ 17:49 UTC
Visibility
20 SM
Flight Rules
VFR
Cloud Levels
  • Scattered at 14,000' AGL
Temperature
21°C / 70°F
Dewpoint
C / 34°F
Humidity
27%
Altimeter
30.01" Hg
Pressure
1016.22 hPa
Previous

2 hours ago

KIFP 261654Z 16003KT 10SM SCT140 18/M02 A3000
Observed
Mar-26 @ 16:54 UTC
Wind
  • 160° at 3 KTS
Visibility
10 SM
Flight Rules
VFR
Cloud Levels
  • Scattered at 14,000' AGL
Temperature
18°C / 64°F
Dewpoint
-2°C / 28°F
Humidity
26%
Altimeter
30" Hg
Pressure
1015.92 hPa
Previous

3 hours ago

KIFP 261553Z 00000KT 10SM FEW140 15/M01 A3000
Observed
Mar-26 @ 15:53 UTC
Visibility
10 SM
Flight Rules
VFR
Cloud Levels
  • Few at 14,000' AGL
Temperature
15°C / 59°F
Dewpoint
-1°C / 30°F
Humidity
34%
Altimeter
30" Hg
Pressure
1015.92 hPa